Time;durP1;ratioP1;P1;durP2;ratioP2;P2;SDS_P1;SDS_P2;PMS_P1;PMS_P2;Temp;Humidity;BMP_temperature;BMP_pressure;BME280_temperature;BME280_humidity;BME280_pressure;Samples;Min_cycle;Max_cycle;Signal;HPM_P1;HPM_P2
2021/11/29 00:02:30;;;;;;;3.95;2.92;;;;;;;;;;6235101;28;20131;-74
2021/11/29 00:05:32;;;;;;;3.97;2.65;;;;;;;;;;6226228;28;20124;-75
2021/11/29 00:08:33;;;;;;;4.13;2.50;;;;;;;;;;6238477;28;20136;-73
2021/11/29 00:11:36;;;;;;;6.70;2.63;;;;;;;;;;6236183;28;20183;-74
2021/11/29 00:14:37;;;;;;;4.25;2.50;;;;;;;;;;6248090;28;20050;-73
2021/11/29 00:17:39;;;;;;;3.63;2.35;;;;;;;;;;6229254;28;20183;-74
2021/11/29 00:20:43;;;;;;;4.85;2.80;;;;;;;;;;6224312;28;20067;-74
2021/11/29 00:23:45;;;;;;;5.68;2.72;;;;;;;;;;6233065;28;20132;-74
2021/11/29 00:26:48;;;;;;;3.35;2.55;;;;;;;;;;6235673;28;20046;-74
2021/11/29 00:29:49;;;;;;;3.28;2.25;;;;;;;;;;6244647;28;20054;-73
2021/11/29 00:32:51;;;;;;;5.00;2.42;;;;;;;;;;6224423;28;20486;-73
2021/11/29 00:35:52;;;;;;;3.60;2.53;;;;;;;;;;6233011;28;20113;-73
2021/11/29 00:38:54;;;;;;;5.55;2.30;;;;;;;;;;6245822;28;20148;-74
2021/11/29 00:41:56;;;;;;;5.22;3.25;;;;;;;;;;6247229;28;20043;-78
2021/11/29 00:44:58;;;;;;;78.72;36.17;;;;;;;;;;6241039;28;20132;-77
2021/11/29 00:47:59;;;;;;;63.50;26.83;;;;;;;;;;6235624;28;20175;-77
2021/11/29 00:51:01;;;;;;;23.17;10.77;;;;;;;;;;6243146;28;20132;-78
2021/11/29 00:54:03;;;;;;;17.27;7.50;;;;;;;;;;6242948;28;20205;-79
2021/11/29 00:57:06;;;;;;;12.88;6.20;;;;;;;;;;6234695;28;20046;-73
2021/11/29 01:00:09;;;;;;;4.65;2.33;;;;;;;;;;6239143;28;20136;-76
2021/11/29 01:03:10;;;;;;;2.80;1.90;;;;;;;;;;6225960;28;20202;-73
2021/11/29 01:06:11;;;;;;;3.55;1.50;;;;;;;;;;6227177;28;20200;-74
2021/11/29 01:09:13;;;;;;;2.47;1.63;;;;;;;;;;6229250;28;20045;-74
2021/11/29 01:12:16;;;;;;;3.42;1.80;;;;;;;;;;6223795;28;20041;-74
2021/11/29 01:15:18;;;;;;;3.42;1.90;;;;;;;;;;6225162;28;20408;-74
2021/11/29 01:18:19;;;;;;;2.88;1.83;;;;;;;;;;6230868;28;20064;-75
2021/11/29 01:21:21;;;;;;;1.83;1.40;;;;;;;;;;6235179;28;20128;-73
2021/11/29 01:24:22;;;;;;;2.65;1.55;;;;;;;;;;6240565;28;20046;-73
2021/11/29 01:27:25;;;;;;;3.83;1.73;;;;;;;;;;6223638;28;20103;-73
2021/11/29 01:30:26;;;;;;;5.32;1.60;;;;;;;;;;6224056;28;20072;-74
2021/11/29 01:33:28;;;;;;;2.53;1.60;;;;;;;;;;6236816;28;20722;-73
2021/11/29 01:36:29;;;;;;;3.15;1.63;;;;;;;;;;6231158;28;20472;-73
2021/11/29 01:39:31;;;;;;;2.70;1.60;;;;;;;;;;6238251;28;20645;-73
2021/11/29 01:42:34;;;;;;;2.03;1.35;;;;;;;;;;6238821;28;20041;-74
2021/11/29 01:45:38;;;;;;;2.55;1.10;;;;;;;;;;6236556;28;20048;-73
2021/11/29 01:48:39;;;;;;;2.00;1.23;;;;;;;;;;6239617;28;20114;-73
2021/11/29 01:51:41;;;;;;;2.50;1.60;;;;;;;;;;6230425;28;20199;-74
2021/11/29 01:54:42;;;;;;;2.45;1.30;;;;;;;;;;6234884;28;20045;-73
2021/11/29 01:57:45;;;;;;;2.85;1.10;;;;;;;;;;6226763;28;20041;-73
2021/11/29 02:00:47;;;;;;;2.60;1.60;;;;;;;;;;6223407;28;20179;-74
2021/11/29 02:03:51;;;;;;;1.80;1.13;;;;;;;;;;6235166;28;20042;-75
2021/11/29 02:06:52;;;;;;;3.30;1.20;;;;;;;;;;6231612;28;20718;-74
2021/11/29 02:09:54;;;;;;;2.53;1.20;;;;;;;;;;6240808;28;20140;-73
2021/11/29 02:12:56;;;;;;;3.85;1.30;;;;;;;;;;6227938;28;20763;-73
2021/11/29 02:15:58;;;;;;;3.38;1.20;;;;;;;;;;6214380;28;20103;-74
2021/11/29 02:18:59;;;;;;;1.70;1.00;;;;;;;;;;6226867;28;20136;-73
2021/11/29 02:22:02;;;;;;;1.63;0.93;;;;;;;;;;6224326;28;20067;-73
2021/11/29 02:25:04;;;;;;;2.40;1.00;;;;;;;;;;6240923;28;20057;-76
2021/11/29 02:28:06;;;;;;;1.80;1.00;;;;;;;;;;6236937;28;20536;-73
2021/11/29 02:31:08;;;;;;;2.58;1.08;;;;;;;;;;6223936;28;20529;-73
2021/11/29 02:34:11;;;;;;;1.30;0.75;;;;;;;;;;6241097;28;20056;-74
2021/11/29 02:37:14;;;;;;;1.13;0.80;;;;;;;;;;6228208;28;20530;-73
2021/11/29 02:40:16;;;;;;;1.40;0.98;;;;;;;;;;6235372;28;20037;-76
2021/11/29 02:43:17;;;;;;;1.80;0.57;;;;;;;;;;6231849;28;20052;-74
2021/11/29 02:46:19;;;;;;;1.65;0.80;;;;;;;;;;6230427;28;20056;-73
2021/11/29 02:49:20;;;;;;;1.27;0.90;;;;;;;;;;6232499;28;20183;-73
2021/11/29 02:52:23;;;;;;;2.25;1.15;;;;;;;;;;6223218;28;20064;-76
2021/11/29 02:55:24;;;;;;;1.60;0.80;;;;;;;;;;6226545;28;20110;-73
2021/11/29 02:58:26;;;;;;;1.67;0.82;;;;;;;;;;6235068;28;20123;-73
2021/11/29 03:01:27;;;;;;;1.38;1.00;;;;;;;;;;6226505;28;20060;-73
2021/11/29 03:04:30;;;;;;;1.70;1.02;;;;;;;;;;6236343;28;20069;-73
2021/11/29 03:07:33;;;;;;;1.65;1.15;;;;;;;;;;6221268;28;20093;-73
2021/11/29 03:10:34;;;;;;;1.88;1.00;;;;;;;;;;6225327;28;20041;-73
2021/11/29 03:13:36;;;;;;;1.90;0.93;;;;;;;;;;6240357;28;20518;-74
2021/11/29 03:16:37;;;;;;;1.30;0.82;;;;;;;;;;6224191;28;20041;-73
2021/11/29 03:19:40;;;;;;;1.58;1.00;;;;;;;;;;6235062;28;20144;-73
2021/11/29 03:22:44;;;;;;;1.65;1.00;;;;;;;;;;6231727;28;20048;-74
2021/11/29 03:25:45;;;;;;;2.20;1.15;;;;;;;;;;6229414;28;20048;-73
2021/11/29 03:28:48;;;;;;;2.75;1.30;;;;;;;;;;6233002;28;20140;-74
2021/11/29 03:31:51;;;;;;;2.13;0.98;;;;;;;;;;6223777;28;20121;-74
2021/11/29 03:34:53;;;;;;;1.88;1.40;;;;;;;;;;6240809;28;20049;-74
2021/11/29 03:37:56;;;;;;;2.50;1.60;;;;;;;;;;6234591;28;20041;-73
2021/11/29 03:40:58;;;;;;;2.63;1.40;;;;;;;;;;6228608;28;20499;-74
2021/11/29 03:43:59;;;;;;;5.00;1.67;;;;;;;;;;6238448;28;20457;-73
2021/11/29 03:47:00;;;;;;;2.88;1.98;;;;;;;;;;6225692;28;20075;-73
2021/11/29 03:50:02;;;;;;;2.63;1.88;;;;;;;;;;6230523;28;20136;-73
2021/11/29 03:53:05;;;;;;;3.90;2.10;;;;;;;;;;6230685;28;20131;-73
2021/11/29 03:56:06;;;;;;;5.05;2.90;;;;;;;;;;6226005;28;20132;-75
2021/11/29 03:59:08;;;;;;;5.00;2.17;;;;;;;;;;6253629;28;20445;-73
2021/11/29 04:02:09;;;;;;;3.50;2.10;;;;;;;;;;6213488;28;20179;-73
2021/11/29 04:05:10;;;;;;;3.38;1.67;;;;;;;;;;6229958;28;20118;-75
2021/11/29 04:08:13;;;;;;;4.05;1.95;;;;;;;;;;6236726;28;20065;-73
2021/11/29 04:11:15;;;;;;;3.28;1.88;;;;;;;;;;6233033;28;20124;-73
2021/11/29 04:14:16;;;;;;;3.50;1.90;;;;;;;;;;6241738;28;20132;-76
2021/11/29 04:17:17;;;;;;;3.17;1.83;;;;;;;;;;6226755;28;20187;-73
2021/11/29 04:20:19;;;;;;;6.75;2.58;;;;;;;;;;6237571;28;20056;-73
2021/11/29 04:23:22;;;;;;;7.88;3.47;;;;;;;;;;6237559;28;20089;-73
2021/11/29 04:26:23;;;;;;;6.78;2.88;;;;;;;;;;6231640;28;20594;-73
2021/11/29 04:29:28;;;;;;;4.30;2.42;;;;;;;;;;6240884;28;20046;-73
2021/11/29 04:32:29;;;;;;;5.53;2.50;;;;;;;;;;6223275;28;20095;-73
2021/11/29 04:35:31;;;;;;;6.90;2.88;;;;;;;;;;6238385;28;20037;-74
2021/11/29 04:38:34;;;;;;;4.22;2.40;;;;;;;;;;6244262;28;20120;-74
2021/11/29 04:41:35;;;;;;;5.05;2.58;;;;;;;;;;6229756;28;20049;-73
2021/11/29 04:44:37;;;;;;;4.60;2.25;;;;;;;;;;6239384;28;20444;-74
2021/11/29 04:47:38;;;;;;;5.38;2.83;;;;;;;;;;6225054;28;20636;-73
2021/11/29 04:50:39;;;;;;;3.55;2.58;;;;;;;;;;6221581;28;20595;-73
2021/11/29 04:53:42;;;;;;;6.97;2.63;;;;;;;;;;6240131;28;20125;-73
2021/11/29 04:56:44;;;;;;;3.60;2.00;;;;;;;;;;6230424;28;20140;-73
2021/11/29 04:59:45;;;;;;;4.85;2.67;;;;;;;;;;6234577;28;20046;-73
2021/11/29 05:02:46;;;;;;;4.80;2.33;;;;;;;;;;6217735;28;20124;-73
2021/11/29 05:05:48;;;;;;;6.85;2.10;;;;;;;;;;6229505;28;20559;-74
2021/11/29 05:08:51;;;;;;;3.90;2.50;;;;;;;;;;6244803;28;20045;-73
2021/11/29 05:11:52;;;;;;;4.35;2.38;;;;;;;;;;6233506;28;20554;-74
2021/11/29 05:14:54;;;;;;;5.22;2.20;;;;;;;;;;6231343;28;20200;-74
2021/11/29 05:17:55;;;;;;;3.53;2.22;;;;;;;;;;6226680;28;20041;-73
2021/11/29 05:20:56;;;;;;;7.18;2.47;;;;;;;;;;6232965;28;20509;-73
2021/11/29 05:24:00;;;;;;;4.60;3.00;;;;;;;;;;6246223;28;20104;-74
2021/11/29 05:27:01;;;;;;;4.40;2.10;;;;;;;;;;6237120;28;20052;-73
2021/11/29 05:30:03;;;;;;;5.47;2.28;;;;;;;;;;6246149;28;20120;-73
2021/11/29 05:33:04;;;;;;;3.45;2.00;;;;;;;;;;6226941;28;20135;-73
2021/11/29 05:36:06;;;;;;;5.30;2.17;;;;;;;;;;6233626;28;20488;-74
2021/11/29 05:39:09;;;;;;;4.75;2.60;;;;;;;;;;6247546;28;20084;-74
2021/11/29 05:42:10;;;;;;;4.60;2.00;;;;;;;;;;6235939;28;20404;-74
2021/11/29 05:45:12;;;;;;;6.95;2.28;;;;;;;;;;6238141;28;20166;-76
2021/11/29 05:48:14;;;;;;;3.35;2.17;;;;;;;;;;6234712;28;20148;-73
2021/11/29 05:51:15;;;;;;;9.38;2.97;;;;;;;;;;6229858;28;20115;-73
2021/11/29 05:54:18;;;;;;;4.90;2.78;;;;;;;;;;6239037;28;20159;-73
2021/11/29 05:57:19;;;;;;;5.40;2.70;;;;;;;;;;6228809;28;20093;-73
2021/11/29 06:00:21;;;;;;;4.97;2.70;;;;;;;;;;6232536;28;20119;-76
2021/11/29 06:03:22;;;;;;;6.25;2.90;;;;;;;;;;6228100;28;20081;-73
2021/11/29 06:06:25;;;;;;;9.38;2.83;;;;;;;;;;6231620;28;20132;-72
2021/11/29 06:09:28;;;;;;;4.53;2.70;;;;;;;;;;6237547;28;20046;-73
2021/11/29 06:12:29;;;;;;;4.90;2.88;;;;;;;;;;6227708;28;20525;-72
2021/11/29 06:15:30;;;;;;;8.38;3.08;;;;;;;;;;6226284;28;20140;-74
2021/11/29 06:18:32;;;;;;;4.85;2.78;;;;;;;;;;6240275;28;20045;-73
2021/11/29 06:21:33;;;;;;;4.78;2.72;;;;;;;;;;6232632;28;20118;-71
2021/11/29 06:24:36;;;;;;;6.00;3.55;;;;;;;;;;6245261;28;20054;-71
2021/11/29 06:27:37;;;;;;;4.88;2.90;;;;;;;;;;6230320;28;20101;-70
2021/11/29 06:30:39;;;;;;;7.82;3.17;;;;;;;;;;6232634;28;20068;-71
2021/11/29 06:33:40;;;;;;;4.88;3.03;;;;;;;;;;6233273;28;20076;-71
2021/11/29 06:36:41;;;;;;;4.57;3.17;;;;;;;;;;6233922;28;20100;-70
2021/11/29 06:39:45;;;;;;;7.15;3.20;;;;;;;;;;6249506;28;20051;-70
2021/11/29 06:42:46;;;;;;;5.10;3.13;;;;;;;;;;6227312;28;20515;-69
2021/11/29 06:45:49;;;;;;;4.70;2.70;;;;;;;;;;6230328;28;20128;-70
2021/11/29 06:48:50;;;;;;;8.00;2.90;;;;;;;;;;6238165;28;20105;-71
2021/11/29 06:51:51;;;;;;;6.43;2.60;;;;;;;;;;6230461;28;20073;-70
2021/11/29 06:54:55;;;;;;;4.47;2.17;;;;;;;;;;6240458;28;20132;-70
2021/11/29 06:57:57;;;;;;;5.45;2.72;;;;;;;;;;6233958;28;20393;-71
2021/11/29 07:00:58;;;;;;;5.03;2.67;;;;;;;;;;6229742;28;20120;-71
2021/11/29 07:04:00;;;;;;;4.85;2.63;;;;;;;;;;6239228;28;20171;-71
2021/11/29 07:07:02;;;;;;;4.88;2.70;;;;;;;;;;6226174;28;20045;-70
2021/11/29 07:10:05;;;;;;;4.80;2.28;;;;;;;;;;6243955;28;20080;-71
2021/11/29 07:13:06;;;;;;;4.65;2.20;;;;;;;;;;6224993;28;20200;-71
2021/11/29 07:16:08;;;;;;;3.95;2.40;;;;;;;;;;6229047;28;20111;-71
2021/11/29 07:19:09;;;;;;;4.40;2.17;;;;;;;;;;6238748;28;20065;-73
2021/11/29 07:22:10;;;;;;;4.15;2.20;;;;;;;;;;6224494;28;20086;-72
2021/11/29 07:25:14;;;;;;;4.55;2.33;;;;;;;;;;6235808;28;20060;-73
2021/11/29 07:28:15;;;;;;;5.15;2.70;;;;;;;;;;6243475;28;20199;-72
2021/11/29 07:31:17;;;;;;;3.60;2.47;;;;;;;;;;6237965;28;20046;-72
2021/11/29 07:34:19;;;;;;;3.53;2.50;;;;;;;;;;6240559;28;20046;-72
2021/11/29 07:37:20;;;;;;;3.45;2.15;;;;;;;;;;6223993;28;20469;-72
2021/11/29 07:40:27;;;;;;;7.38;3.00;;;;;;;;;;6234238;28;20054;-73
2021/11/29 07:43:29;;;;;;;5.30;2.60;;;;;;;;;;6234962;28;20054;-71
2021/11/29 07:46:30;;;;;;;4.05;2.35;;;;;;;;;;6228797;28;20118;-73
2021/11/29 07:49:32;;;;;;;5.05;2.50;;;;;;;;;;6248455;28;20465;-72
2021/11/29 07:52:33;;;;;;;5.10;2.10;;;;;;;;;;6230068;28;20060;-71
2021/11/29 07:55:36;;;;;;;4.38;2.28;;;;;;;;;;6235329;28;20084;-72
2021/11/29 07:58:38;;;;;;;4.40;2.28;;;;;;;;;;6240989;28;20133;-73
2021/11/29 08:01:39;;;;;;;4.10;2.25;;;;;;;;;;6219083;28;20188;-72
2021/11/29 08:04:41;;;;;;;7.47;2.60;;;;;;;;;;6240798;28;20115;-72
2021/11/29 08:07:42;;;;;;;4.82;2.33;;;;;;;;;;6224301;28;20179;-73
2021/11/29 08:10:45;;;;;;;3.83;1.63;;;;;;;;;;6230787;28;20045;-71
2021/11/29 08:13:46;;;;;;;2.78;1.92;;;;;;;;;;6244865;28;20158;-72
2021/11/29 08:16:48;;;;;;;3.20;1.65;;;;;;;;;;6231235;28;20140;-72
2021/11/29 08:19:49;;;;;;;3.45;1.90;;;;;;;;;;6246252;28;20639;-71
2021/11/29 08:22:51;;;;;;;2.58;1.77;;;;;;;;;;6235970;28;20349;-71
2021/11/29 08:25:54;;;;;;;5.40;1.92;;;;;;;;;;6237889;28;20141;-72
2021/11/29 08:28:55;;;;;;;4.07;1.60;;;;;;;;;;6251989;28;20174;-73
2021/11/29 08:31:56;;;;;;;3.03;1.75;;;;;;;;;;6222346;28;20053;-73
2021/11/29 08:34:58;;;;;;;5.00;1.95;;;;;;;;;;6240509;28;20090;-73
2021/11/29 08:37:59;;;;;;;2.90;2.17;;;;;;;;;;6227203;28;20086;-72
2021/11/29 08:41:03;;;;;;;4.60;2.13;;;;;;;;;;6236273;28;20045;-72
2021/11/29 08:44:05;;;;;;;4.53;2.42;;;;;;;;;;6249540;28;20195;-72
2021/11/29 08:47:06;;;;;;;3.70;2.10;;;;;;;;;;6227469;28;20050;-72
2021/11/29 08:50:09;;;;;;;5.05;2.00;;;;;;;;;;6239880;28;20053;-74
2021/11/29 08:53:12;;;;;;;6.13;2.00;;;;;;;;;;6235700;28;20153;-71
2021/11/29 08:56:15;;;;;;;2.75;1.55;;;;;;;;;;6213461;28;20555;-72
2021/11/29 08:59:17;;;;;;;4.88;2.15;;;;;;;;;;6233560;28;20430;-72
2021/11/29 09:02:19;;;;;;;6.90;1.80;;;;;;;;;;6229042;28;20049;-72
2021/11/29 09:05:21;;;;;;;4.03;2.10;;;;;;;;;;6238388;28;20124;-75
2021/11/29 09:08:22;;;;;;;6.47;1.90;;;;;;;;;;6241055;28;20128;-73
2021/11/29 09:11:25;;;;;;;4.40;2.30;;;;;;;;;;6230749;28;20145;-71
2021/11/29 09:14:26;;;;;;;5.93;2.00;;;;;;;;;;6243441;28;20212;-70
2021/11/29 09:17:28;;;;;;;2.90;1.95;;;;;;;;;;6227366;28;20080;-73
2021/11/29 09:20:29;;;;;;;5.03;1.90;;;;;;;;;;6235913;28;20512;-75
2021/11/29 09:23:31;;;;;;;3.97;1.95;;;;;;;;;;6239730;28;20235;-73
2021/11/29 09:26:34;;;;;;;3.97;2.17;;;;;;;;;;6233650;28;20113;-72
2021/11/29 09:29:35;;;;;;;5.93;2.17;;;;;;;;;;6243978;28;20045;-73
2021/11/29 09:32:38;;;;;;;3.45;1.95;;;;;;;;;;6223928;28;20119;-74
2021/11/29 09:35:39;;;;;;;4.00;1.90;;;;;;;;;;6220006;28;20053;-75
2021/11/29 09:38:40;;;;;;;4.47;2.30;;;;;;;;;;6251352;28;20151;-72
2021/11/29 09:41:43;;;;;;;4.20;2.22;;;;;;;;;;6240235;28;20065;-73
2021/11/29 09:44:45;;;;;;;3.45;2.10;;;;;;;;;;6244702;28;20041;-72
2021/11/29 09:47:46;;;;;;;9.40;2.15;;;;;;;;;;6231399;28;20172;-73
2021/11/29 09:50:48;;;;;;;3.28;1.88;;;;;;;;;;6234562;28;20065;-73
2021/11/29 09:53:52;;;;;;;2.65;1.73;;;;;;;;;;6236146;28;20041;-73
2021/11/29 09:56:55;;;;;;;2.97;1.90;;;;;;;;;;6232592;28;20065;-73
2021/11/29 09:59:57;;;;;;;3.20;2.03;;;;;;;;;;6247864;28;20129;-73
2021/11/29 10:02:59;;;;;;;3.88;2.00;;;;;;;;;;6227097;28;20053;-73
2021/11/29 10:06:00;;;;;;;2.20;1.83;;;;;;;;;;6229932;28;20179;-73
2021/11/29 10:09:02;;;;;;;4.60;2.30;;;;;;;;;;6236914;28;20125;-73
2021/11/29 10:12:18;;;;;;;5.13;2.03;;;;;;;;;;6231817;28;20062;-75
2021/11/29 10:15:25;;;;;;;2.90;1.73;;;;;;;;;;6233566;28;20123;-73
2021/11/29 10:18:29;;;;;;;3.25;1.80;;;;;;;;;;6239701;28;20049;-72
2021/11/29 10:21:30;;;;;;;3.28;1.80;;;;;;;;;;6236161;28;20049;-72
2021/11/29 10:24:32;;;;;;;3.28;1.90;;;;;;;;;;6248939;28;20088;-74
2021/11/29 10:27:37;;;;;;;4.30;1.83;;;;;;;;;;6226573;28;20045;-74
2021/11/29 10:30:40;;;;;;;4.03;2.28;;;;;;;;;;6234101;28;20133;-73
2021/11/29 10:33:45;;;;;;;2.90;1.70;;;;;;;;;;6233361;28;20041;-73
2021/11/29 10:36:48;;;;;;;3.90;2.00;;;;;;;;;;6234915;28;20848;-73
2021/11/29 10:39:52;;;;;;;2.83;2.00;;;;;;;;;;6237623;28;20212;-72
2021/11/29 10:42:54;;;;;;;2.30;1.63;;;;;;;;;;6230235;28;20403;-74
2021/11/29 10:45:57;;;;;;;4.05;1.77;;;;;;;;;;6245280;28;20219;-73
2021/11/29 10:48:59;;;;;;;2.85;1.90;;;;;;;;;;6240886;28;20141;-72
2021/11/29 10:52:01;;;;;;;3.30;1.95;;;;;;;;;;6228689;28;20053;-73
2021/11/29 10:55:03;;;;;;;2.05;1.73;;;;;;;;;;6249428;28;20142;-73
2021/11/29 10:58:05;;;;;;;2.65;1.90;;;;;;;;;;6241304;28;20042;-73
2021/11/29 11:01:08;;;;;;;5.45;2.30;;;;;;;;;;6227353;28;20057;-75
2021/11/29 11:04:11;;;;;;;3.45;2.42;;;;;;;;;;6239285;28;20168;-73
2021/11/29 11:07:15;;;;;;;3.78;1.92;;;;;;;;;;6230266;28;20176;-72
2021/11/29 11:10:17;;;;;;;3.72;1.90;;;;;;;;;;6243078;28;20040;-73
2021/11/29 11:13:18;;;;;;;2.90;1.90;;;;;;;;;;6235267;28;20065;-72
2021/11/29 11:16:38;;;;;;;2.67;2.30;;;;;;;;;;6220308;28;20136;-72
2021/11/29 11:19:40;;;;;;;2.88;2.33;;;;;;;;;;6235523;28;20164;-73
2021/11/29 11:22:43;;;;;;;3.35;2.15;;;;;;;;;;6223125;28;20142;-74
2021/11/29 11:25:44;;;;;;;3.63;2.30;;;;;;;;;;6236166;28;20525;-73
2021/11/29 11:28:45;;;;;;;4.07;2.63;;;;;;;;;;6240423;28;20264;-73
2021/11/29 11:31:48;;;;;;;3.78;2.10;;;;;;;;;;6215577;28;20133;-73
2021/11/29 11:34:50;;;;;;;2.83;2.10;;;;;;;;;;6230369;28;20125;-73
2021/11/29 11:37:53;;;;;;;7.15;2.40;;;;;;;;;;6216616;28;20112;-76
2021/11/29 11:40:55;;;;;;;4.15;2.30;;;;;;;;;;6222869;28;20057;-74
2021/11/29 11:43:57;;;;;;;3.53;2.45;;;;;;;;;;6253740;28;20530;-72
2021/11/29 11:47:00;;;;;;;3.13;2.13;;;;;;;;;;6237807;28;20662;-75
2021/11/29 11:50:02;;;;;;;3.22;2.35;;;;;;;;;;6235577;28;20056;-76
2021/11/29 11:53:04;;;;;;;3.67;2.45;;;;;;;;;;6229990;28;20533;-75
2021/11/29 11:56:06;;;;;;;4.50;2.80;;;;;;;;;;6228321;28;20041;-73
2021/11/29 11:59:12;;;;;;;4.15;2.47;;;;;;;;;;6239262;28;20578;-75
2021/11/29 12:02:17;;;;;;;4.10;2.63;;;;;;;;;;6223846;28;20063;-78
2021/11/29 12:05:19;;;;;;;4.13;2.67;;;;;;;;;;6227441;28;20049;-72
2021/11/29 12:08:46;;;;;;;4.50;2.35;;;;;;;;;;6237272;28;20037;-73
2021/11/29 12:11:48;;;;;;;2.78;2.38;;;;;;;;;;6205017;28;20057;-74
2021/11/29 12:14:49;;;;;;;4.57;2.65;;;;;;;;;;6237551;28;20353;-75
2021/11/29 12:17:52;;;;;;;5.35;2.58;;;;;;;;;;6220092;28;20050;-72
2021/11/29 12:21:11;;;;;;;5.57;2.60;;;;;;;;;;6224952;28;20301;-75
2021/11/29 12:24:14;;;;;;;6.80;2.53;;;;;;;;;;6242313;28;20511;-73
2021/11/29 12:27:16;;;;;;;3.97;2.33;;;;;;;;;;6228409;28;20049;-74
2021/11/29 12:30:30;;;;;;;4.07;2.75;;;;;;;;;;6237635;28;20183;-76
2021/11/29 12:33:45;;;;;;;3.33;2.10;;;;;;;;;;6238808;28;20186;-71
2021/11/29 12:37:05;;;;;;;2.75;1.92;;;;;;;;;;6228143;28;20050;-72
2021/11/29 12:40:08;;;;;;;5.30;1.52;;;;;;;;;;6241785;28;20187;-75
2021/11/29 12:43:09;;;;;;;2.85;1.20;;;;;;;;;;6237978;28;20313;-75
2021/11/29 12:46:27;;;;;;;1.33;0.90;;;;;;;;;;6236787;28;20053;-74
2021/11/29 12:49:36;;;;;;;2.80;0.80;;;;;;;;;;6237854;28;20148;-74
2021/11/29 12:52:39;;;;;;;1.75;0.70;;;;;;;;;;6231325;28;20382;-74
2021/11/29 12:55:42;;;;;;;0.90;0.57;;;;;;;;;;6232078;28;20132;-74
2021/11/29 12:58:52;;;;;;;1.63;0.40;;;;;;;;;;6244131;28;20132;-74
2021/11/29 13:01:53;;;;;;;2.35;1.00;;;;;;;;;;6217341;28;20353;-74
2021/11/29 13:04:56;;;;;;;5.10;0.68;;;;;;;;;;6240900;28;20045;-75
2021/11/29 13:07:59;;;;;;;3.40;0.67;;;;;;;;;;6242824;28;20235;-74
2021/11/29 13:11:06;;;;;;;0.88;0.35;;;;;;;;;;6229354;28;20092;-77
2021/11/29 13:14:09;;;;;;;0.30;0.30;;;;;;;;;;6240221;28;20054;-73
2021/11/29 13:17:11;;;;;;;3.33;0.50;;;;;;;;;;6226805;28;20179;-74
2021/11/29 13:20:14;;;;;;;3.65;0.60;;;;;;;;;;6235826;28;20129;-77
2021/11/29 13:23:19;;;;;;;2.45;0.50;;;;;;;;;;6241671;28;20124;-74
2021/11/29 13:26:22;;;;;;;4.30;0.55;;;;;;;;;;6239117;28;20192;-74
2021/11/29 13:29:24;;;;;;;1.15;0.50;;;;;;;;;;6240499;28;20196;-77
2021/11/29 13:32:27;;;;;;;1.70;0.80;;;;;;;;;;6233625;28;20125;-78
2021/11/29 13:35:29;;;;;;;1.75;0.65;;;;;;;;;;6233316;28;20266;-77
2021/11/29 13:38:31;;;;;;;5.77;1.07;;;;;;;;;;6240889;28;20060;-76
2021/11/29 13:41:33;;;;;;;1.70;0.57;;;;;;;;;;6230133;28;21009;-76
2021/11/29 13:44:35;;;;;;;0.60;0.35;;;;;;;;;;6243637;28;20051;-79
2021/11/29 13:47:38;;;;;;;1.52;0.40;;;;;;;;;;6228128;28;20045;-74
2021/11/29 13:50:42;;;;;;;1.90;0.40;;;;;;;;;;6233060;28;20377;-75
2021/11/29 13:53:45;;;;;;;1.50;0.40;;;;;;;;;;6239255;28;20084;-73
2021/11/29 13:56:46;;;;;;;1.02;0.52;;;;;;;;;;6235084;28;20049;-73
2021/11/29 13:59:48;;;;;;;0.52;0.30;;;;;;;;;;6247600;28;20066;-75
2021/11/29 14:03:01;;;;;;;1.38;0.60;;;;;;;;;;6230024;28;20052;-75
2021/11/29 14:06:05;;;;;;;1.10;0.52;;;;;;;;;;6233638;28;20393;-76
2021/11/29 14:09:14;;;;;;;1.40;0.60;;;;;;;;;;6242854;28;20049;-72
2021/11/29 14:12:15;;;;;;;1.00;0.70;;;;;;;;;;6233634;28;20471;-75
2021/11/29 14:15:17;;;;;;;2.88;0.70;;;;;;;;;;6228219;28;20135;-76
2021/11/29 14:18:22;;;;;;;1.42;0.45;;;;;;;;;;6233816;28;20046;-80
2021/11/29 14:21:28;;;;;;;0.95;0.50;;;;;;;;;;6225484;28;20111;-77
2021/11/29 14:24:32;;;;;;;0.60;0.32;;;;;;;;;;6241053;28;20060;-74
2021/11/29 14:27:33;;;;;;;2.15;0.50;;;;;;;;;;6233981;28;20054;-74
2021/11/29 14:30:36;;;;;;;0.82;0.40;;;;;;;;;;6236135;28;20724;-75
2021/11/29 14:33:39;;;;;;;2.42;0.55;;;;;;;;;;6246135;28;20723;-73
2021/11/29 14:36:43;;;;;;;2.15;0.60;;;;;;;;;;6234578;28;20508;-73
2021/11/29 14:39:47;;;;;;;0.70;0.52;;;;;;;;;;6249606;28;20038;-73
2021/11/29 14:42:49;;;;;;;;;;;;;;;;;;6234178;28;20053;-73
2021/11/29 14:45:50;;;;;;;1.38;0.50;;;;;;;;;;6233461;28;22068;-73
2021/11/29 14:49:06;;;;;;;2.20;0.40;;;;;;;;;;6238562;28;20455;-74
2021/11/29 14:52:12;;;;;;;2.13;0.60;;;;;;;;;;6235691;28;20064;-73
2021/11/29 14:55:15;;;;;;;2.67;0.80;;;;;;;;;;6211567;28;20128;-73
2021/11/29 14:58:18;;;;;;;2.58;0.90;;;;;;;;;;6240623;28;20046;-75
2021/11/29 15:01:19;;;;;;;6.80;0.75;;;;;;;;;;6231476;28;20394;-73
2021/11/29 15:04:25;;;;;;;2.35;0.73;;;;;;;;;;6238381;28;20381;-80
2021/11/29 15:07:29;;;;;;;1.63;0.70;;;;;;;;;;6231411;28;20424;-75
2021/11/29 15:10:31;;;;;;;0.60;0.40;;;;;;;;;;6233290;28;20129;-74
2021/11/29 15:13:39;;;;;;;2.47;0.80;;;;;;;;;;6239300;28;20185;-73
2021/11/29 15:16:43;;;;;;;1.95;0.40;;;;;;;;;;6234977;28;20099;-74
2021/11/29 15:19:45;;;;;;;;;;;;;;;;;;6246347;28;20046;-72
2021/11/29 15:22:49;;;;;;;3.70;0.60;;;;;;;;;;6235574;28;19947;-75
2021/11/29 15:25:54;;;;;;;3.38;0.68;;;;;;;;;;6228622;28;20041;-75
2021/11/29 15:28:55;;;;;;;4.50;0.88;;;;;;;;;;6240705;28;20143;-75
2021/11/29 15:31:57;;;;;;;3.80;0.77;;;;;;;;;;6235966;28;20477;-76
2021/11/29 15:35:09;;;;;;;3.08;0.88;;;;;;;;;;6232371;28;20135;-75
2021/11/29 15:38:14;;;;;;;1.20;0.52;;;;;;;;;;6238756;28;20141;-76
2021/11/29 15:41:17;;;;;;;1.45;0.80;;;;;;;;;;6232144;28;20049;-74
2021/11/29 15:44:28;;;;;;;4.47;0.88;;;;;;;;;;6236282;28;20365;-74
2021/11/29 15:47:30;;;;;;;1.27;0.60;;;;;;;;;;6231095;28;20064;-75
2021/11/29 15:50:32;;;;;;;2.38;0.50;;;;;;;;;;6239703;28;20118;-76
2021/11/29 15:53:38;;;;;;;0.90;0.55;;;;;;;;;;6241095;28;20183;-75
2021/11/29 15:56:40;;;;;;;1.80;0.50;;;;;;;;;;6231757;28;20056;-76
2021/11/29 15:59:41;;;;;;;3.20;0.75;;;;;;;;;;6241464;28;20135;-74
2021/11/29 16:02:44;;;;;;;0.70;0.40;;;;;;;;;;6231455;28;20122;-75
2021/11/29 16:05:46;;;;;;;1.73;0.60;;;;;;;;;;6236046;28;20060;-73
2021/11/29 16:08:49;;;;;;;2.15;0.80;;;;;;;;;;6243376;28;20057;-75
2021/11/29 16:11:50;;;;;;;3.72;0.60;;;;;;;;;;6225373;28;20468;-77
2021/11/29 16:14:52;;;;;;;1.30;0.50;;;;;;;;;;6225448;28;20105;-75
2021/11/29 16:17:53;;;;;;;2.00;0.70;;;;;;;;;;6209067;28;20184;-74
2021/11/29 16:20:55;;;;;;;0.95;0.60;;;;;;;;;;6208430;28;20041;-75
2021/11/29 16:23:58;;;;;;;1.67;0.70;;;;;;;;;;6218950;28;20046;-74
2021/11/29 16:27:04;;;;;;;1.38;0.70;;;;;;;;;;6208390;28;20180;-75
2021/11/29 16:30:06;;;;;;;0.82;0.50;;;;;;;;;;6214510;28;20050;-80
2021/11/29 16:33:10;;;;;;;1.20;0.57;;;;;;;;;;6208250;28;20113;-76
2021/11/29 16:36:12;;;;;;;2.67;1.10;;;;;;;;;;6217430;28;20058;-74
2021/11/29 16:39:14;;;;;;;0.80;0.55;;;;;;;;;;6223555;28;20125;-74
2021/11/29 16:42:16;;;;;;;2.53;0.70;;;;;;;;;;6213183;28;20163;-74
2021/11/29 16:45:18;;;;;;;0.85;0.50;;;;;;;;;;6217022;28;20069;-77
2021/11/29 16:48:20;;;;;;;1.65;0.60;;;;;;;;;;6203686;28;20053;-75
2021/11/29 16:51:23;;;;;;;2.70;0.50;;;;;;;;;;6207200;28;20050;-76
2021/11/29 16:54:25;;;;;;;1.10;0.52;;;;;;;;;;6219438;28;20066;-74
2021/11/29 16:57:27;;;;;;;1.15;0.50;;;;;;;;;;6209960;28;20073;-76
2021/11/29 17:00:28;;;;;;;1.45;0.70;;;;;;;;;;6207934;28;20084;-80
2021/11/29 17:03:30;;;;;;;1.05;0.60;;;;;;;;;;6211356;28;20192;-78
2021/11/29 17:06:31;;;;;;;2.60;0.90;;;;;;;;;;6211095;28;20517;-75
2021/11/29 17:09:34;;;;;;;1.20;0.60;;;;;;;;;;6220723;28;20137;-75
2021/11/29 17:12:36;;;;;;;2.05;0.50;;;;;;;;;;6215531;28;20179;-75
2021/11/29 17:15:37;;;;;;;1.67;0.85;;;;;;;;;;6206369;28;20053;-74
2021/11/29 17:18:39;;;;;;;1.27;0.80;;;;;;;;;;6219805;28;20077;-75
2021/11/29 17:21:41;;;;;;;1.42;0.80;;;;;;;;;;6220899;28;20053;-72
2021/11/29 17:24:43;;;;;;;2.13;0.70;;;;;;;;;;6217795;28;20129;-72
2021/11/29 17:27:49;;;;;;;1.20;0.80;;;;;;;;;;6215991;28;20065;-73
2021/11/29 17:30:50;;;;;;;1.48;0.88;;;;;;;;;;6210207;28;20517;-72
2021/11/29 17:33:52;;;;;;;2.80;0.77;;;;;;;;;;6217622;28;20081;-73
2021/11/29 17:36:54;;;;;;;2.58;1.00;;;;;;;;;;6209441;28;20133;-72
2021/11/29 17:39:57;;;;;;;17.60;7.75;;;;;;;;;;6214534;28;20128;-73
2021/11/29 17:42:58;;;;;;;3.40;1.48;;;;;;;;;;6220939;28;20037;-72
2021/11/29 17:46:00;;;;;;;4.35;0.70;;;;;;;;;;6212836;28;20045;-72
2021/11/29 17:49:01;;;;;;;3.67;0.88;;;;;;;;;;6218540;28;20124;-73
2021/11/29 17:52:04;;;;;;;2.08;1.00;;;;;;;;;;6213202;28;20116;-72
2021/11/29 17:55:07;;;;;;;2.03;1.00;;;;;;;;;;6218531;28;20050;-83
2021/11/29 17:58:08;;;;;;;3.53;0.90;;;;;;;;;;6217738;28;20057;-73
2021/11/29 18:01:10;;;;;;;1.30;0.90;;;;;;;;;;6210000;28;20057;-72
2021/11/29 18:04:12;;;;;;;1.77;1.00;;;;;;;;;;6216709;28;20052;-71
2021/11/29 18:07:14;;;;;;;3.45;1.10;;;;;;;;;;6208180;28;20180;-71
2021/11/29 18:13:36;;;;;;;1.35;0.73;;;;;;;;;;6214181;28;20067;-71
2021/11/29 18:16:37;;;;;;;1.50;0.70;;;;;;;;;;6211112;28;20041;-71
2021/11/29 18:19:39;;;;;;;2.22;1.20;;;;;;;;;;6212126;28;20074;-72